首页
METAR-TAF:

METAR-TAF

机场 :

特雷維索, 意大利

纬度: 45-41N, 经度: 012-06E, 海拔: 45米

当前天气观测

该预报发布于32分钟前的11:55 UTC
风速3节,风向南转南东
温度 14°C
湿度 88%
气压 1024 hPa
能見度: 1000
散云层高于400英尺
散云层高于600英尺
轻雾

METAR: LIPS 211155Z 16003KT 1000 BR SCT004 SCT006 14/12 Q1024 RMK BKN BKN120 VIS MIN 1000 WIND THR26 11002KT WIND THR08 21002KT AMB

时间: 14:27 (12:27 UTC)

预报

该预报发布于1小时和27分钟前的11:00 UTC
预报有效从21日的 12点(UTC)到 21日的 21点(UTC)
风速3节,风向多变
能見度: 1000
多云层高于500英尺
轻雾
短暂存在
从 21日的 13点(UTC)到 21日的 15点(UTC)
能見度: 2500
散云层高于1000英尺
散云层高于5000英尺
轻雾

TAF: LIPS 211100Z 2112/2121 VRB03KT 1000 BR BKN005 TEMPO 2113/2115 2500 BR SCT010 SCT050

超过4000个机场的气象观测和天气预报(METAR&TAF报告)。

可查询的气象台以黄色和红色小点在地图上表示。

将鼠标移到小点上方,可查看气象台名称。

然后点击查看天气观测和预报。

如需切换地图:点击带黑十字的绿色按钮放大地图;点击带横线的绿色按钮缩小地图;或者点击绿色箭头查看邻近地区的地图。


METAR-TAF: